Western Head, Canada
Current Conditions -  °F | °C
As of 6:00 AM on Saturday 20 Dec 2014 (Local Time) from CYZX Reporting Station
Overcast Overcast  
Wind Chill: -5°   Ceiling: 2300
Heat Index: -1°   Visibility: 15mi
Dew Point: -4°   Wind: 8mph
Humidity: 80%   Direction: 30°NNE
Pressure: 30.16"   Gusts: NA
Location:  43.99°N, 64.68°W
Report Text: CYZX 201000Z 03007KT 15SM OVC023 M01/M04 A3016 RMK SC8 WNDY HILL 05008KT SLP213
Loading
Personal Weather Stations






























Interactive Weather Map New forecast layout! Learn more

10-Day Weather Forecast

Advertisements
Track Severe Weather on mobile